sensor_id;sensor_type;location;lat;lon;timestamp;temperature;humidity
5617;DHT22;2830;50.656;7.568;2023-11-18T00:02:03;4.00;99.90
5617;DHT22;2830;50.656;7.568;2023-11-18T00:04:30;4.00;99.90
5617;DHT22;2830;50.656;7.568;2023-11-18T00:06:57;3.90;99.90
5617;DHT22;2830;50.656;7.568;2023-11-18T00:09:34;4.00;99.90
5617;DHT22;2830;50.656;7.568;2023-11-18T00:12:00;4.00;99.90
5617;DHT22;2830;50.656;7.568;2023-11-18T00:14:27;4.00;99.90
5617;DHT22;2830;50.656;7.568;2023-11-18T00:16:54;4.00;99.90
5617;DHT22;2830;50.656;7.568;2023-11-18T00:19:21;4.00;99.90
5617;DHT22;2830;50.656;7.568;2023-11-18T00:21:47;4.10;99.90
5617;DHT22;2830;50.656;7.568;2023-11-18T00:24:14;4.30;99.90
5617;DHT22;2830;50.656;7.568;2023-11-18T00:26:41;4.20;99.90
5617;DHT22;2830;50.656;7.568;2023-11-18T00:29:07;4.10;99.90
5617;DHT22;2830;50.656;7.568;2023-11-18T00:31:35;4.10;99.90
5617;DHT22;2830;50.656;7.568;2023-11-18T00:34:02;4.20;99.90
5617;DHT22;2830;50.656;7.568;2023-11-18T00:36:28;4.30;99.90
5617;DHT22;2830;50.656;7.568;2023-11-18T00:38:55;4.30;99.90
5617;DHT22;2830;50.656;7.568;2023-11-18T00:41:22;4.30;99.90
5617;DHT22;2830;50.656;7.568;2023-11-18T00:43:49;4.20;99.90
5617;DHT22;2830;50.656;7.568;2023-11-18T00:46:16;3.80;99.90
5617;DHT22;2830;50.656;7.568;2023-11-18T00:48:43;4.40;99.90
5617;DHT22;2830;50.656;7.568;2023-11-18T00:51:10;4.40;99.90
5617;DHT22;2830;50.656;7.568;2023-11-18T00:53:39;4.40;99.90
5617;DHT22;2830;50.656;7.568;2023-11-18T00:56:06;4.40;99.90
5617;DHT22;2830;50.656;7.568;2023-11-18T00:58:36;4.40;99.90
5617;DHT22;2830;50.656;7.568;2023-11-18T01:01:06;4.30;99.90
5617;DHT22;2830;50.656;7.568;2023-11-18T01:03:33;4.40;99.90
5617;DHT22;2830;50.656;7.568;2023-11-18T01:06:00;4.40;99.90
5617;DHT22;2830;50.656;7.568;2023-11-18T01:08:27;4.50;99.90
5617;DHT22;2830;50.656;7.568;2023-11-18T01:10:54;4.50;99.90
5617;DHT22;2830;50.656;7.568;2023-11-18T01:13:21;4.40;99.90
5617;DHT22;2830;50.656;7.568;2023-11-18T01:15:49;4.50;99.90
5617;DHT22;2830;50.656;7.568;2023-11-18T01:18:16;4.50;99.90
5617;DHT22;2830;50.656;7.568;2023-11-18T01:20:44;4.50;99.90
5617;DHT22;2830;50.656;7.568;2023-11-18T01:23:11;4.50;99.90
5617;DHT22;2830;50.656;7.568;2023-11-18T01:25:38;4.50;99.90
5617;DHT22;2830;50.656;7.568;2023-11-18T01:28:06;4.40;99.90
5617;DHT22;2830;50.656;7.568;2023-11-18T01:30:33;4.30;99.90
5617;DHT22;2830;50.656;7.568;2023-11-18T01:33:00;4.40;99.90
5617;DHT22;2830;50.656;7.568;2023-11-18T01:35:30;4.40;99.90
5617;DHT22;2830;50.656;7.568;2023-11-18T01:37:58;4.40;99.90
5617;DHT22;2830;50.656;7.568;2023-11-18T01:40:26;4.40;99.90
5617;DHT22;2830;50.656;7.568;2023-11-18T01:42:52;4.40;99.90
5617;DHT22;2830;50.656;7.568;2023-11-18T01:45:21;4.40;99.90
5617;DHT22;2830;50.656;7.568;2023-11-18T01:47:48;4.40;99.90
5617;DHT22;2830;50.656;7.568;2023-11-18T01:50:17;4.00;99.90
5617;DHT22;2830;50.656;7.568;2023-11-18T01:52:45;4.20;99.90
5617;DHT22;2830;50.656;7.568;2023-11-18T01:55:13;4.30;99.90
5617;DHT22;2830;50.656;7.568;2023-11-18T01:57:40;4.40;99.90
5617;DHT22;2830;50.656;7.568;2023-11-18T02:00:12;4.30;99.90
5617;DHT22;2830;50.656;7.568;2023-11-18T02:02:39;4.30;99.90
5617;DHT22;2830;50.656;7.568;2023-11-18T02:05:06;4.50;99.90
5617;DHT22;2830;50.656;7.568;2023-11-18T02:07:34;4.40;99.90
5617;DHT22;2830;50.656;7.568;2023-11-18T02:10:04;5.70;99.90
5617;DHT22;2830;50.656;7.568;2023-11-18T02:15:09;4.50;99.90
5617;DHT22;2830;50.656;7.568;2023-11-18T02:17:40;4.50;99.90
5617;DHT22;2830;50.656;7.568;2023-11-18T02:20:10;4.50;99.90
5617;DHT22;2830;50.656;7.568;2023-11-18T02:22:45;4.50;99.90
5617;DHT22;2830;50.656;7.568;2023-11-18T02:25:16;4.40;99.90
5617;DHT22;2830;50.656;7.568;2023-11-18T02:27:43;4.50;99.90
5617;DHT22;2830;50.656;7.568;2023-11-18T02:30:12;4.50;99.90
5617;DHT22;2830;50.656;7.568;2023-11-18T02:33:02;4.50;99.90
5617;DHT22;2830;50.656;7.568;2023-11-18T02:35:41;4.50;99.90
5617;DHT22;2830;50.656;7.568;2023-11-18T02:38:19;4.50;99.90
5617;DHT22;2830;50.656;7.568;2023-11-18T02:40:48;4.40;99.90
5617;DHT22;2830;50.656;7.568;2023-11-18T02:43:18;4.40;99.90
5617;DHT22;2830;50.656;7.568;2023-11-18T02:45:51;4.40;99.90
5617;DHT22;2830;50.656;7.568;2023-11-18T02:48:21;4.50;99.90
5617;DHT22;2830;50.656;7.568;2023-11-18T02:50:48;4.50;99.90
5617;DHT22;2830;50.656;7.568;2023-11-18T02:53:14;4.50;99.90
5617;DHT22;2830;50.656;7.568;2023-11-18T02:55:41;4.40;99.90
5617;DHT22;2830;50.656;7.568;2023-11-18T02:58:08;4.50;99.90
5617;DHT22;2830;50.656;7.568;2023-11-18T03:00:35;4.40;99.90
5617;DHT22;2830;50.656;7.568;2023-11-18T03:03:01;4.30;99.90
5617;DHT22;2830;50.656;7.568;2023-11-18T03:05:30;4.30;99.90
5617;DHT22;2830;50.656;7.568;2023-11-18T03:07:57;4.30;99.90
5617;DHT22;2830;50.656;7.568;2023-11-18T03:10:24;4.30;99.90
5617;DHT22;2830;50.656;7.568;2023-11-18T03:12:52;4.30;99.90
5617;DHT22;2830;50.656;7.568;2023-11-18T03:15:20;4.40;99.90
5617;DHT22;2830;50.656;7.568;2023-11-18T03:17:49;4.40;99.90
5617;DHT22;2830;50.656;7.568;2023-11-18T03:20:17;4.40;99.90
5617;DHT22;2830;50.656;7.568;2023-11-18T03:22:45;4.40;99.90
5617;DHT22;2830;50.656;7.568;2023-11-18T03:25:13;4.40;99.90
5617;DHT22;2830;50.656;7.568;2023-11-18T03:27:40;4.40;99.90
5617;DHT22;2830;50.656;7.568;2023-11-18T03:30:08;4.50;99.90
5617;DHT22;2830;50.656;7.568;2023-11-18T03:32:35;4.50;99.90
5617;DHT22;2830;50.656;7.568;2023-11-18T03:35:03;4.60;99.90
5617;DHT22;2830;50.656;7.568;2023-11-18T03:37:40;4.70;99.90
5617;DHT22;2830;50.656;7.568;2023-11-18T03:40:12;4.60;99.90
5617;DHT22;2830;50.656;7.568;2023-11-18T03:42:41;4.50;99.90
5617;DHT22;2830;50.656;7.568;2023-11-18T03:45:08;4.50;99.90
5617;DHT22;2830;50.656;7.568;2023-11-18T03:47:36;4.50;99.90
5617;DHT22;2830;50.656;7.568;2023-11-18T03:50:03;4.40;99.90
5617;DHT22;2830;50.656;7.568;2023-11-18T03:52:29;4.40;99.90
5617;DHT22;2830;50.656;7.568;2023-11-18T03:54:56;4.10;99.90
5617;DHT22;2830;50.656;7.568;2023-11-18T03:57:23;4.40;99.90
5617;DHT22;2830;50.656;7.568;2023-11-18T03:59:49;4.40;99.90
5617;DHT22;2830;50.656;7.568;2023-11-18T04:02:18;4.40;99.90
5617;DHT22;2830;50.656;7.568;2023-11-18T04:04:44;4.40;99.90
5617;DHT22;2830;50.656;7.568;2023-11-18T04:07:11;4.30;99.90
5617;DHT22;2830;50.656;7.568;2023-11-18T04:09:38;4.40;99.90
5617;DHT22;2830;50.656;7.568;2023-11-18T04:12:07;4.40;99.90
5617;DHT22;2830;50.656;7.568;2023-11-18T04:14:34;4.40;99.90
5617;DHT22;2830;50.656;7.568;2023-11-18T04:17:01;4.50;99.90
5617;DHT22;2830;50.656;7.568;2023-11-18T04:19:30;4.50;99.90
5617;DHT22;2830;50.656;7.568;2023-11-18T04:21:56;4.50;99.90
5617;DHT22;2830;50.656;7.568;2023-11-18T04:24:23;4.50;99.90
5617;DHT22;2830;50.656;7.568;2023-11-18T04:26:50;4.30;99.90
5617;DHT22;2830;50.656;7.568;2023-11-18T04:29:17;4.50;99.90
5617;DHT22;2830;50.656;7.568;2023-11-18T04:31:44;4.50;99.90
5617;DHT22;2830;50.656;7.568;2023-11-18T04:34:11;4.50;99.90
5617;DHT22;2830;50.656;7.568;2023-11-18T04:36:38;4.50;99.90
5617;DHT22;2830;50.656;7.568;2023-11-18T04:39:04;4.50;99.90
5617;DHT22;2830;50.656;7.568;2023-11-18T04:41:31;4.40;99.90
5617;DHT22;2830;50.656;7.568;2023-11-18T04:43:58;4.50;99.90
5617;DHT22;2830;50.656;7.568;2023-11-18T04:46:25;4.50;99.90
5617;DHT22;2830;50.656;7.568;2023-11-18T04:48:52;4.50;99.90
5617;DHT22;2830;50.656;7.568;2023-11-18T04:51:21;4.60;99.90
5617;DHT22;2830;50.656;7.568;2023-11-18T04:53:48;4.50;99.90
5617;DHT22;2830;50.656;7.568;2023-11-18T04:56:21;4.50;99.90
5617;DHT22;2830;50.656;7.568;2023-11-18T04:58:48;4.50;99.90
5617;DHT22;2830;50.656;7.568;2023-11-18T05:01:15;4.50;99.90
5617;DHT22;2830;50.656;7.568;2023-11-18T05:03:42;4.50;99.90
5617;DHT22;2830;50.656;7.568;2023-11-18T05:06:09;4.50;99.90
5617;DHT22;2830;50.656;7.568;2023-11-18T05:08:35;4.50;99.90
5617;DHT22;2830;50.656;7.568;2023-11-18T05:11:03;4.50;99.90
5617;DHT22;2830;50.656;7.568;2023-11-18T05:13:31;4.50;99.90
5617;DHT22;2830;50.656;7.568;2023-11-18T05:16:00;4.60;99.90
5617;DHT22;2830;50.656;7.568;2023-11-18T05:18:27;4.60;99.90
5617;DHT22;2830;50.656;7.568;2023-11-18T05:20:56;4.60;99.90
5617;DHT22;2830;50.656;7.568;2023-11-18T05:23:23;4.60;99.90
5617;DHT22;2830;50.656;7.568;2023-11-18T05:25:50;4.60;99.90
5617;DHT22;2830;50.656;7.568;2023-11-18T05:28:17;4.50;99.90
5617;DHT22;2830;50.656;7.568;2023-11-18T05:30:44;4.50;99.90
5617;DHT22;2830;50.656;7.568;2023-11-18T05:33:11;4.50;99.90
5617;DHT22;2830;50.656;7.568;2023-11-18T05:35:46;4.50;99.90
5617;DHT22;2830;50.656;7.568;2023-11-18T05:38:16;4.50;99.90
5617;DHT22;2830;50.656;7.568;2023-11-18T05:40:45;4.50;99.90
5617;DHT22;2830;50.656;7.568;2023-11-18T05:43:27;4.50;99.90
5617;DHT22;2830;50.656;7.568;2023-11-18T05:46:06;4.40;99.90
5617;DHT22;2830;50.656;7.568;2023-11-18T05:48:42;4.50;99.90
5617;DHT22;2830;50.656;7.568;2023-11-18T05:51:10;4.50;99.90
5617;DHT22;2830;50.656;7.568;2023-11-18T05:53:41;4.50;99.90
5617;DHT22;2830;50.656;7.568;2023-11-18T05:56:10;4.50;99.90
5617;DHT22;2830;50.656;7.568;2023-11-18T05:58:40;4.50;99.90
5617;DHT22;2830;50.656;7.568;2023-11-18T06:01:07;4.50;99.90
5617;DHT22;2830;50.656;7.568;2023-11-18T06:03:34;4.50;99.90
5617;DHT22;2830;50.656;7.568;2023-11-18T06:06:07;4.50;99.90
5617;DHT22;2830;50.656;7.568;2023-11-18T06:08:35;4.50;99.90
5617;DHT22;2830;50.656;7.568;2023-11-18T06:11:02;4.50;99.90
5617;DHT22;2830;50.656;7.568;2023-11-18T06:13:40;4.50;99.90
5617;DHT22;2830;50.656;7.568;2023-11-18T06:16:20;4.50;99.90
5617;DHT22;2830;50.656;7.568;2023-11-18T06:18:52;4.50;99.90
5617;DHT22;2830;50.656;7.568;2023-11-18T06:21:21;4.60;99.90
5617;DHT22;2830;50.656;7.568;2023-11-18T06:23:51;4.60;99.90
5617;DHT22;2830;50.656;7.568;2023-11-18T06:26:18;4.60;99.90
5617;DHT22;2830;50.656;7.568;2023-11-18T06:28:45;4.70;99.90
5617;DHT22;2830;50.656;7.568;2023-11-18T06:31:12;4.70;99.90
5617;DHT22;2830;50.656;7.568;2023-11-18T06:33:41;4.60;99.90
5617;DHT22;2830;50.656;7.568;2023-11-18T06:38:53;4.60;99.90
5617;DHT22;2830;50.656;7.568;2023-11-18T06:41:22;4.60;99.90
5617;DHT22;2830;50.656;7.568;2023-11-18T06:44:00;4.60;99.90
5617;DHT22;2830;50.656;7.568;2023-11-18T06:46:31;4.70;99.90
5617;DHT22;2830;50.656;7.568;2023-11-18T06:49:03;4.70;99.90
5617;DHT22;2830;50.656;7.568;2023-11-18T06:51:37;4.70;99.90
5617;DHT22;2830;50.656;7.568;2023-11-18T06:54:05;4.70;99.90
5617;DHT22;2830;50.656;7.568;2023-11-18T06:56:37;4.70;99.90
5617;DHT22;2830;50.656;7.568;2023-11-18T06:59:05;4.80;99.90
5617;DHT22;2830;50.656;7.568;2023-11-18T07:01:38;4.80;99.90
5617;DHT22;2830;50.656;7.568;2023-11-18T07:04:07;4.80;99.90
5617;DHT22;2830;50.656;7.568;2023-11-18T07:06:40;4.80;99.90
5617;DHT22;2830;50.656;7.568;2023-11-18T07:09:08;4.80;99.90
5617;DHT22;2830;50.656;7.568;2023-11-18T07:11:40;4.80;99.90
5617;DHT22;2830;50.656;7.568;2023-11-18T07:14:11;5.20;99.90
5617;DHT22;2830;50.656;7.568;2023-11-18T07:16:39;4.80;99.90
5617;DHT22;2830;50.656;7.568;2023-11-18T07:19:07;4.90;99.90
5617;DHT22;2830;50.656;7.568;2023-11-18T07:21:34;5.30;99.90
5617;DHT22;2830;50.656;7.568;2023-11-18T07:24:01;4.90;99.90
5617;DHT22;2830;50.656;7.568;2023-11-18T07:26:39;4.90;99.90
5617;DHT22;2830;50.656;7.568;2023-11-18T07:29:06;4.90;99.90
5617;DHT22;2830;50.656;7.568;2023-11-18T07:31:35;4.90;99.90
5617;DHT22;2830;50.656;7.568;2023-11-18T07:34:03;4.80;99.90
5617;DHT22;2830;50.656;7.568;2023-11-18T07:36:32;4.80;99.90
5617;DHT22;2830;50.656;7.568;2023-11-18T07:38:59;5.10;99.90
5617;DHT22;2830;50.656;7.568;2023-11-18T07:41:33;4.90;99.90
5617;DHT22;2830;50.656;7.568;2023-11-18T07:44:00;4.90;99.90
5617;DHT22;2830;50.656;7.568;2023-11-18T07:46:28;4.90;99.90
5617;DHT22;2830;50.656;7.568;2023-11-18T07:48:57;5.00;99.90
5617;DHT22;2830;50.656;7.568;2023-11-18T07:51:24;5.00;99.90
5617;DHT22;2830;50.656;7.568;2023-11-18T07:53:52;5.00;99.90
5617;DHT22;2830;50.656;7.568;2023-11-18T07:56:19;4.90;99.90
5617;DHT22;2830;50.656;7.568;2023-11-18T07:58:49;5.00;99.90
5617;DHT22;2830;50.656;7.568;2023-11-18T08:01:17;5.00;99.90
5617;DHT22;2830;50.656;7.568;2023-11-18T08:03:44;5.10;99.90
5617;DHT22;2830;50.656;7.568;2023-11-18T08:06:12;5.00;99.90
5617;DHT22;2830;50.656;7.568;2023-11-18T08:08:39;5.10;99.90
5617;DHT22;2830;50.656;7.568;2023-11-18T08:11:10;5.10;99.90
5617;DHT22;2830;50.656;7.568;2023-11-18T08:13:37;5.00;99.90
5617;DHT22;2830;50.656;7.568;2023-11-18T08:16:04;5.00;99.90
5617;DHT22;2830;50.656;7.568;2023-11-18T08:18:31;4.90;99.90
5617;DHT22;2830;50.656;7.568;2023-11-18T08:20:58;4.90;99.90
5617;DHT22;2830;50.656;7.568;2023-11-18T08:23:27;4.90;99.90
5617;DHT22;2830;50.656;7.568;2023-11-18T08:25:55;4.80;99.90
5617;DHT22;2830;50.656;7.568;2023-11-18T08:28:22;4.80;99.90
5617;DHT22;2830;50.656;7.568;2023-11-18T08:30:49;4.80;99.90
5617;DHT22;2830;50.656;7.568;2023-11-18T08:33:18;5.10;99.90
5617;DHT22;2830;50.656;7.568;2023-11-18T08:35:45;4.80;99.90
5617;DHT22;2830;50.656;7.568;2023-11-18T08:38:12;4.80;99.90
5617;DHT22;2830;50.656;7.568;2023-11-18T08:40:39;4.80;99.90
5617;DHT22;2830;50.656;7.568;2023-11-18T08:43:07;4.90;99.90
5617;DHT22;2830;50.656;7.568;2023-11-18T08:45:35;4.90;99.90
5617;DHT22;2830;50.656;7.568;2023-11-18T08:48:04;4.90;99.90
5617;DHT22;2830;50.656;7.568;2023-11-18T08:50:36;5.00;99.90
5617;DHT22;2830;50.656;7.568;2023-11-18T08:53:04;5.00;99.90
5617;DHT22;2830;50.656;7.568;2023-11-18T08:55:32;5.10;99.90
5617;DHT22;2830;50.656;7.568;2023-11-18T08:58:08;5.20;99.90
5617;DHT22;2830;50.656;7.568;2023-11-18T09:00:57;5.30;99.90
5617;DHT22;2830;50.656;7.568;2023-11-18T09:03:41;5.40;99.90
5617;DHT22;2830;50.656;7.568;2023-11-18T09:06:18;5.50;99.90
5617;DHT22;2830;50.656;7.568;2023-11-18T09:08:52;5.60;99.90
5617;DHT22;2830;50.656;7.568;2023-11-18T09:11:24;5.60;99.90
5617;DHT22;2830;50.656;7.568;2023-11-18T09:13:55;5.60;99.90
5617;DHT22;2830;50.656;7.568;2023-11-18T09:16:27;5.50;99.90
5617;DHT22;2830;50.656;7.568;2023-11-18T09:18:59;5.50;99.90
5617;DHT22;2830;50.656;7.568;2023-11-18T09:21:28;5.40;99.90
5617;DHT22;2830;50.656;7.568;2023-11-18T09:23:57;5.40;99.90
5617;DHT22;2830;50.656;7.568;2023-11-18T09:26:24;5.40;99.90
5617;DHT22;2830;50.656;7.568;2023-11-18T09:28:53;5.50;99.90
5617;DHT22;2830;50.656;7.568;2023-11-18T09:31:20;5.50;99.90
5617;DHT22;2830;50.656;7.568;2023-11-18T09:33:48;5.50;99.90
5617;DHT22;2830;50.656;7.568;2023-11-18T09:36:25;5.60;99.90
5617;DHT22;2830;50.656;7.568;2023-11-18T09:38:55;5.70;99.90
5617;DHT22;2830;50.656;7.568;2023-11-18T09:41:23;5.80;99.90
5617;DHT22;2830;50.656;7.568;2023-11-18T09:43:51;5.70;99.90
5617;DHT22;2830;50.656;7.568;2023-11-18T09:46:25;5.70;99.90
5617;DHT22;2830;50.656;7.568;2023-11-18T09:49:22;5.70;99.90
5617;DHT22;2830;50.656;7.568;2023-11-18T09:52:03;5.70;99.90
5617;DHT22;2830;50.656;7.568;2023-11-18T09:54:56;5.70;99.90
5617;DHT22;2830;50.656;7.568;2023-11-18T09:57:44;5.70;99.90
5617;DHT22;2830;50.656;7.568;2023-11-18T10:00:12;5.60;99.90
5617;DHT22;2830;50.656;7.568;2023-11-18T10:02:53;5.60;99.90
5617;DHT22;2830;50.656;7.568;2023-11-18T10:05:22;5.50;99.90
5617;DHT22;2830;50.656;7.568;2023-11-18T10:07:53;5.40;99.90
5617;DHT22;2830;50.656;7.568;2023-11-18T10:10:21;5.40;99.90
5617;DHT22;2830;50.656;7.568;2023-11-18T10:12:50;5.40;99.90
5617;DHT22;2830;50.656;7.568;2023-11-18T10:15:21;5.40;99.90
5617;DHT22;2830;50.656;7.568;2023-11-18T10:17:52;5.40;99.90
5617;DHT22;2830;50.656;7.568;2023-11-18T10:20:46;5.40;99.90
5617;DHT22;2830;50.656;7.568;2023-11-18T10:23:14;5.40;99.90
5617;DHT22;2830;50.656;7.568;2023-11-18T10:25:47;5.40;99.90
5617;DHT22;2830;50.656;7.568;2023-11-18T10:30:50;5.40;99.90
5617;DHT22;2830;50.656;7.568;2023-11-18T10:33:17;5.50;99.90
5617;DHT22;2830;50.656;7.568;2023-11-18T10:35:51;5.50;99.90
5617;DHT22;2830;50.656;7.568;2023-11-18T10:38:19;5.50;99.90
5617;DHT22;2830;50.656;7.568;2023-11-18T10:40:46;5.50;99.90
5617;DHT22;2830;50.656;7.568;2023-11-18T10:43:13;5.60;99.90
5617;DHT22;2830;50.656;7.568;2023-11-18T10:45:43;5.70;99.90
5617;DHT22;2830;50.656;7.568;2023-11-18T10:48:13;5.70;99.90
5617;DHT22;2830;50.656;7.568;2023-11-18T10:50:49;5.70;99.90
5617;DHT22;2830;50.656;7.568;2023-11-18T10:53:18;5.80;99.90
5617;DHT22;2830;50.656;7.568;2023-11-18T10:55:50;5.80;99.90
5617;DHT22;2830;50.656;7.568;2023-11-18T10:58:17;5.80;99.90
5617;DHT22;2830;50.656;7.568;2023-11-18T11:00:48;5.90;99.90
5617;DHT22;2830;50.656;7.568;2023-11-18T11:03:16;6.00;99.90
5617;DHT22;2830;50.656;7.568;2023-11-18T11:05:42;6.00;99.90
5617;DHT22;2830;50.656;7.568;2023-11-18T11:08:14;6.00;99.90
5617;DHT22;2830;50.656;7.568;2023-11-18T11:10:56;5.90;99.90
5617;DHT22;2830;50.656;7.568;2023-11-18T11:13:25;5.90;99.90
5617;DHT22;2830;50.656;7.568;2023-11-18T11:15:55;6.00;99.90
5617;DHT22;2830;50.656;7.568;2023-11-18T11:18:28;6.00;99.90
5617;DHT22;2830;50.656;7.568;2023-11-18T11:21:14;6.10;99.90
5617;DHT22;2830;50.656;7.568;2023-11-18T11:23:53;6.10;99.90
5617;DHT22;2830;50.656;7.568;2023-11-18T11:26:57;6.10;99.90
5617;DHT22;2830;50.656;7.568;2023-11-18T11:29:38;6.00;99.90
5617;DHT22;2830;50.656;7.568;2023-11-18T11:32:27;6.00;99.90
5617;DHT22;2830;50.656;7.568;2023-11-18T11:35:07;6.10;99.90
5617;DHT22;2830;50.656;7.568;2023-11-18T11:37:43;6.10;99.90
5617;DHT22;2830;50.656;7.568;2023-11-18T11:40:12;6.10;99.90
5617;DHT22;2830;50.656;7.568;2023-11-18T11:42:51;6.10;99.90
5617;DHT22;2830;50.656;7.568;2023-11-18T11:45:23;6.20;99.90
5617;DHT22;2830;50.656;7.568;2023-11-18T11:48:03;6.20;99.90
5617;DHT22;2830;50.656;7.568;2023-11-18T11:53:23;6.30;99.90
5617;DHT22;2830;50.656;7.568;2023-11-18T11:58:30;6.30;99.90
5617;DHT22;2830;50.656;7.568;2023-11-18T12:01:01;6.30;99.90
5617;DHT22;2830;50.656;7.568;2023-11-18T12:03:40;6.30;99.90
5617;DHT22;2830;50.656;7.568;2023-11-18T12:06:12;6.40;99.90
5617;DHT22;2830;50.656;7.568;2023-11-18T12:08:42;6.40;99.90
5617;DHT22;2830;50.656;7.568;2023-11-18T12:11:11;6.40;99.90
5617;DHT22;2830;50.656;7.568;2023-11-18T12:13:39;6.30;99.90
5617;DHT22;2830;50.656;7.568;2023-11-18T12:16:06;6.40;99.90
5617;DHT22;2830;50.656;7.568;2023-11-18T12:18:36;5.70;99.90
5617;DHT22;2830;50.656;7.568;2023-11-18T12:21:03;6.50;99.90
5617;DHT22;2830;50.656;7.568;2023-11-18T12:23:31;6.50;99.90
5617;DHT22;2830;50.656;7.568;2023-11-18T12:26:01;6.30;99.90
5617;DHT22;2830;50.656;7.568;2023-11-18T12:28:31;6.60;99.90
5617;DHT22;2830;50.656;7.568;2023-11-18T12:31:03;6.60;99.90
5617;DHT22;2830;50.656;7.568;2023-11-18T12:42:03;6.70;99.90
5617;DHT22;2830;50.656;7.568;2023-11-18T12:45:08;6.70;99.90
5617;DHT22;2830;50.656;7.568;2023-11-18T12:47:43;6.70;99.90
5617;DHT22;2830;50.656;7.568;2023-11-18T12:50:11;6.70;99.90
5617;DHT22;2830;50.656;7.568;2023-11-18T12:52:52;6.70;99.90
5617;DHT22;2830;50.656;7.568;2023-11-18T12:55:20;6.70;99.90
5617;DHT22;2830;50.656;7.568;2023-11-18T12:57:48;6.70;99.90
5617;DHT22;2830;50.656;7.568;2023-11-18T13:00:32;6.70;99.90
5617;DHT22;2830;50.656;7.568;2023-11-18T13:03:00;6.70;99.90
5617;DHT22;2830;50.656;7.568;2023-11-18T13:05:28;6.70;99.90
5617;DHT22;2830;50.656;7.568;2023-11-18T13:07:56;6.70;99.90
5617;DHT22;2830;50.656;7.568;2023-11-18T13:10:28;6.70;99.90
5617;DHT22;2830;50.656;7.568;2023-11-18T13:12:55;6.70;99.90
5617;DHT22;2830;50.656;7.568;2023-11-18T13:15:25;6.70;99.90
5617;DHT22;2830;50.656;7.568;2023-11-18T13:18:02;6.70;99.90
5617;DHT22;2830;50.656;7.568;2023-11-18T13:20:36;6.70;99.90
5617;DHT22;2830;50.656;7.568;2023-11-18T13:23:03;6.70;99.90
5617;DHT22;2830;50.656;7.568;2023-11-18T13:25:35;6.70;99.90
5617;DHT22;2830;50.656;7.568;2023-11-18T13:28:05;6.70;99.90
5617;DHT22;2830;50.656;7.568;2023-11-18T13:30:33;6.70;99.90
5617;DHT22;2830;50.656;7.568;2023-11-18T13:33:03;6.70;99.90
5617;DHT22;2830;50.656;7.568;2023-11-18T13:35:30;6.70;99.90
5617;DHT22;2830;50.656;7.568;2023-11-18T13:37:57;6.70;99.90
5617;DHT22;2830;50.656;7.568;2023-11-18T13:40:25;6.60;99.90
5617;DHT22;2830;50.656;7.568;2023-11-18T13:43:02;6.60;99.90
5617;DHT22;2830;50.656;7.568;2023-11-18T13:45:35;6.60;99.90
5617;DHT22;2830;50.656;7.568;2023-11-18T13:48:05;6.60;99.90
5617;DHT22;2830;50.656;7.568;2023-11-18T13:50:34;6.70;99.90
5617;DHT22;2830;50.656;7.568;2023-11-18T13:53:02;6.70;99.90
5617;DHT22;2830;50.656;7.568;2023-11-18T13:55:29;6.70;99.90
5617;DHT22;2830;50.656;7.568;2023-11-18T13:57:59;6.70;99.90
5617;DHT22;2830;50.656;7.568;2023-11-18T14:00:26;6.70;99.90
5617;DHT22;2830;50.656;7.568;2023-11-18T14:02:58;6.70;99.90
5617;DHT22;2830;50.656;7.568;2023-11-18T14:05:26;6.70;99.90
5617;DHT22;2830;50.656;7.568;2023-11-18T14:07:54;6.80;99.90
5617;DHT22;2830;50.656;7.568;2023-11-18T14:10:26;6.70;99.90
5617;DHT22;2830;50.656;7.568;2023-11-18T14:13:05;6.70;99.90
5617;DHT22;2830;50.656;7.568;2023-11-18T14:15:43;6.70;99.90
5617;DHT22;2830;50.656;7.568;2023-11-18T14:18:15;6.80;99.90
5617;DHT22;2830;50.656;7.568;2023-11-18T14:20:41;6.80;99.90
5617;DHT22;2830;50.656;7.568;2023-11-18T14:23:08;6.70;99.90
5617;DHT22;2830;50.656;7.568;2023-11-18T14:25:35;6.70;99.90
5617;DHT22;2830;50.656;7.568;2023-11-18T14:28:02;6.70;99.90
5617;DHT22;2830;50.656;7.568;2023-11-18T14:30:29;6.70;99.90
5617;DHT22;2830;50.656;7.568;2023-11-18T14:32:56;6.70;99.90
5617;DHT22;2830;50.656;7.568;2023-11-18T14:35:23;6.70;99.90
5617;DHT22;2830;50.656;7.568;2023-11-18T14:37:53;6.70;99.90
5617;DHT22;2830;50.656;7.568;2023-11-18T14:40:20;6.70;99.90
5617;DHT22;2830;50.656;7.568;2023-11-18T14:42:51;6.70;99.90
5617;DHT22;2830;50.656;7.568;2023-11-18T14:45:18;6.70;99.90
5617;DHT22;2830;50.656;7.568;2023-11-18T14:47:45;6.70;99.90
5617;DHT22;2830;50.656;7.568;2023-11-18T14:50:18;6.70;99.90
5617;DHT22;2830;50.656;7.568;2023-11-18T14:55:12;6.70;99.90
5617;DHT22;2830;50.656;7.568;2023-11-18T14:57:48;6.50;99.90
5617;DHT22;2830;50.656;7.568;2023-11-18T15:00:15;6.70;99.90
5617;DHT22;2830;50.656;7.568;2023-11-18T15:02:54;6.60;99.90
5617;DHT22;2830;50.656;7.568;2023-11-18T15:05:25;6.60;99.90
5617;DHT22;2830;50.656;7.568;2023-11-18T15:07:54;6.60;99.90
5617;DHT22;2830;50.656;7.568;2023-11-18T15:10:26;6.60;99.90
5617;DHT22;2830;50.656;7.568;2023-11-18T15:12:57;6.60;99.90
5617;DHT22;2830;50.656;7.568;2023-11-18T15:15:35;6.60;99.90
5617;DHT22;2830;50.656;7.568;2023-11-18T15:18:06;6.60;99.90
5617;DHT22;2830;50.656;7.568;2023-11-18T15:20:36;6.60;99.90
5617;DHT22;2830;50.656;7.568;2023-11-18T15:23:02;6.60;99.90
5617;DHT22;2830;50.656;7.568;2023-11-18T15:25:31;6.60;99.90
5617;DHT22;2830;50.656;7.568;2023-11-18T15:27:57;6.50;99.90
5617;DHT22;2830;50.656;7.568;2023-11-18T15:30:36;6.60;99.90
5617;DHT22;2830;50.656;7.568;2023-11-18T15:33:03;6.60;99.90
5617;DHT22;2830;50.656;7.568;2023-11-18T15:35:30;6.60;99.90
5617;DHT22;2830;50.656;7.568;2023-11-18T15:37:57;6.60;99.90
5617;DHT22;2830;50.656;7.568;2023-11-18T15:40:24;6.60;99.90
5617;DHT22;2830;50.656;7.568;2023-11-18T15:42:52;6.60;99.90
5617;DHT22;2830;50.656;7.568;2023-11-18T15:45:20;6.60;99.90
5617;DHT22;2830;50.656;7.568;2023-11-18T15:47:47;6.60;99.90
5617;DHT22;2830;50.656;7.568;2023-11-18T15:50:16;6.60;99.90
5617;DHT22;2830;50.656;7.568;2023-11-18T15:53:01;6.50;99.90
5617;DHT22;2830;50.656;7.568;2023-11-18T15:55:28;6.50;99.90
5617;DHT22;2830;50.656;7.568;2023-11-18T15:57:55;6.50;99.90
5617;DHT22;2830;50.656;7.568;2023-11-18T16:00:26;6.50;99.90
5617;DHT22;2830;50.656;7.568;2023-11-18T16:02:59;6.50;99.90
5617;DHT22;2830;50.656;7.568;2023-11-18T16:05:29;6.50;99.90
5617;DHT22;2830;50.656;7.568;2023-11-18T16:08:01;6.50;99.90
5617;DHT22;2830;50.656;7.568;2023-11-18T16:10:29;6.50;99.90
5617;DHT22;2830;50.656;7.568;2023-11-18T16:12:58;6.50;99.90
5617;DHT22;2830;50.656;7.568;2023-11-18T16:15:26;6.50;99.90
5617;DHT22;2830;50.656;7.568;2023-11-18T16:17:55;6.50;99.90
5617;DHT22;2830;50.656;7.568;2023-11-18T16:20:25;6.50;99.90
5617;DHT22;2830;50.656;7.568;2023-11-18T16:22:54;6.50;99.90
5617;DHT22;2830;50.656;7.568;2023-11-18T16:25:25;6.50;99.90
5617;DHT22;2830;50.656;7.568;2023-11-18T16:28:02;6.50;99.90
5617;DHT22;2830;50.656;7.568;2023-11-18T16:30:30;6.50;99.90
5617;DHT22;2830;50.656;7.568;2023-11-18T16:32:59;6.50;99.90
5617;DHT22;2830;50.656;7.568;2023-11-18T16:35:31;6.50;99.90
5617;DHT22;2830;50.656;7.568;2023-11-18T16:37:57;6.50;99.90
5617;DHT22;2830;50.656;7.568;2023-11-18T16:40:27;6.50;99.90
5617;DHT22;2830;50.656;7.568;2023-11-18T16:42:54;6.40;99.90
5617;DHT22;2830;50.656;7.568;2023-11-18T16:45:22;6.50;99.90
5617;DHT22;2830;50.656;7.568;2023-11-18T16:47:51;6.50;99.90
5617;DHT22;2830;50.656;7.568;2023-11-18T16:50:20;6.50;99.90
5617;DHT22;2830;50.656;7.568;2023-11-18T16:52:48;6.50;99.90
5617;DHT22;2830;50.656;7.568;2023-11-18T16:55:17;6.50;99.90
5617;DHT22;2830;50.656;7.568;2023-11-18T16:57:43;6.50;99.90
5617;DHT22;2830;50.656;7.568;2023-11-18T17:00:13;6.50;99.90